createdAt,value
2023-03-28T00:02:06.157Z,4.75
2023-03-28T00:04:33.097Z,5.60
2023-03-28T00:07:00.117Z,7.07
2023-03-28T00:09:27.067Z,5.95
2023-03-28T00:11:54.039Z,4.72
2023-03-28T00:14:20.970Z,5.65
2023-03-28T00:17:45.287Z,8.25
2023-03-28T00:20:14.364Z,6.63
2023-03-28T00:22:41.399Z,6.05
2023-03-28T00:25:09.183Z,11.07
2023-03-28T00:27:36.920Z,7.35
2023-03-28T00:30:05.980Z,5.82
2023-03-28T00:32:33.663Z,3.85
2023-03-28T00:35:00.780Z,4.35
2023-03-28T00:37:27.929Z,4.45
2023-03-28T00:39:54.958Z,3.00
2023-03-28T00:42:24.062Z,4.72
2023-03-28T00:44:53.788Z,3.22
2023-03-28T00:47:30.825Z,3.70
2023-03-28T00:50:20.256Z,4.50
2023-03-28T00:53:05.186Z,6.10
2023-03-28T00:55:35.877Z,5.28
2023-03-28T00:58:08.095Z,4.47
2023-03-28T01:00:35.546Z,10.15
2023-03-28T01:03:04.185Z,3.67
2023-03-28T01:05:33.971Z,8.02
2023-03-28T01:08:11.780Z,9.07
2023-03-28T01:10:38.845Z,12.30
2023-03-28T01:13:07.828Z,4.83
2023-03-28T01:15:35.120Z,9.18
2023-03-28T01:18:10.824Z,4.93
2023-03-28T01:21:13.967Z,8.98
2023-03-28T01:24:10.867Z,8.73
2023-03-28T01:27:01.463Z,7.15
2023-03-28T01:29:47.423Z,5.95
2023-03-28T01:32:36.699Z,5.93
2023-03-28T01:35:13.629Z,8.38
2023-03-28T01:38:05.793Z,4.28
2023-03-28T01:40:39.274Z,10.50
2023-03-28T01:43:41.721Z,5.03
2023-03-28T01:46:22.171Z,7.25
2023-03-28T01:49:11.185Z,7.18
2023-03-28T01:51:59.828Z,11.55
2023-03-28T01:54:36.974Z,6.43
2023-03-28T01:57:22.775Z,4.93
2023-03-28T02:00:20.779Z,8.85
2023-03-28T02:03:18.977Z,8.75
2023-03-28T02:05:54.753Z,5.80
2023-03-28T02:08:23.561Z,8.65
2023-03-28T02:11:13.868Z,4.15
2023-03-28T02:14:09.642Z,8.18
2023-03-28T02:17:15.888Z,10.60
2023-03-28T02:20:17.300Z,7.80
2023-03-28T02:23:30.058Z,11.57
2023-03-28T02:26:25.421Z,10.85
2023-03-28T02:29:16.889Z,7.03
2023-03-28T02:31:55.891Z,7.20
2023-03-28T02:34:25.374Z,7.15
2023-03-28T02:37:18.521Z,8.95
2023-03-28T02:39:52.759Z,7.15
2023-03-28T02:42:46.426Z,5.28
2023-03-28T02:45:36.284Z,7.65
2023-03-28T02:48:18.372Z,6.78
2023-03-28T02:50:53.644Z,10.55
2023-03-28T02:53:48.231Z,5.40
2023-03-28T02:56:37.183Z,5.63
2023-03-28T02:59:12.520Z,8.57
2023-03-28T03:01:41.764Z,6.18
2023-03-28T03:04:08.918Z,4.45
2023-03-28T03:06:36.807Z,6.72
2023-03-28T03:09:05.029Z,7.18
2023-03-28T03:11:32.469Z,3.67
2023-03-28T03:14:00.541Z,7.40
2023-03-28T03:16:29.619Z,7.72
2023-03-28T03:18:58.276Z,4.93
2023-03-28T03:21:26.162Z,9.45
2023-03-28T03:23:53.411Z,5.97
2023-03-28T03:26:20.753Z,4.95
2023-03-28T03:29:04.378Z,6.72
2023-03-28T03:31:32.938Z,7.78
2023-03-28T03:34:18.939Z,8.10
2023-03-28T03:36:53.284Z,4.70
2023-03-28T03:39:20.912Z,10.38
2023-03-28T03:41:48.681Z,10.55
2023-03-28T03:44:15.720Z,7.13
2023-03-28T03:46:42.833Z,7.03
2023-03-28T03:49:10.609Z,9.40
2023-03-28T03:51:39.528Z,6.50
2023-03-28T03:54:07.085Z,8.88
2023-03-28T03:56:37.109Z,11.80
2023-03-28T03:59:04.452Z,5.43
2023-03-28T04:01:34.071Z,13.18
2023-03-28T04:04:17.636Z,14.63
2023-03-28T04:07:20.559Z,12.40
2023-03-28T04:09:50.414Z,10.23
2023-03-28T04:13:08.825Z,11.00
2023-03-28T04:15:37.832Z,12.13
2023-03-28T04:18:08.263Z,9.27
2023-03-28T04:20:41.339Z,10.48
2023-03-28T04:23:09.815Z,7.72
2023-03-28T04:25:41.789Z,10.27
2023-03-28T04:28:16.373Z,9.32
2023-03-28T04:31:00.206Z,13.82
2023-03-28T04:33:46.309Z,9.50
2023-03-28T04:36:21.558Z,12.10
2023-03-28T04:38:58.584Z,7.60
2023-03-28T04:41:48.557Z,16.48
2023-03-28T04:44:45.013Z,15.95
2023-03-28T04:47:13.176Z,13.32
2023-03-28T04:49:40.267Z,11.05
2023-03-28T04:52:08.025Z,6.85
2023-03-28T04:54:35.706Z,8.13
2023-03-28T04:57:08.804Z,9.40
2023-03-28T04:59:48.089Z,10.18
2023-03-28T05:02:26.786Z,13.15
2023-03-28T05:05:00.930Z,18.15
2023-03-28T05:07:28.018Z,11.02
2023-03-28T05:09:55.159Z,8.98
2023-03-28T05:12:22.183Z,12.32
2023-03-28T05:15:04.364Z,9.50
2023-03-28T05:17:32.944Z,11.70
2023-03-28T05:20:03.077Z,10.27
2023-03-28T05:22:36.459Z,11.32
2023-03-28T05:25:08.452Z,10.40
2023-03-28T05:27:38.902Z,8.07
2023-03-28T05:30:08.004Z,6.90
2023-03-28T05:32:35.579Z,8.63
2023-03-28T05:35:02.695Z,7.68
2023-03-28T05:40:00.002Z,13.88
2023-03-28T05:42:27.035Z,10.88
2023-03-28T05:44:54.072Z,7.90
2023-03-28T05:47:39.640Z,11.02
2023-03-28T05:50:08.086Z,13.13
2023-03-28T05:52:35.355Z,8.03
2023-03-28T05:55:06.666Z,14.18
2023-03-28T05:57:33.741Z,9.70
2023-03-28T06:00:04.446Z,8.93
2023-03-28T06:02:34.728Z,10.77
2023-03-28T06:05:01.791Z,16.38
2023-03-28T06:07:41.393Z,12.25
2023-03-28T06:10:13.726Z,8.55
2023-03-28T06:12:45.280Z,9.90
2023-03-28T06:15:12.883Z,12.13
2023-03-28T06:17:44.042Z,11.25
2023-03-28T06:20:11.364Z,11.23
2023-03-28T06:22:39.173Z,6.20
2023-03-28T06:25:09.244Z,11.75
2023-03-28T06:27:36.402Z,9.27
2023-03-28T06:30:04.995Z,13.25
2023-03-28T06:32:37.728Z,11.07
2023-03-28T06:35:05.169Z,9.63
2023-03-28T06:37:32.878Z,11.77
2023-03-28T06:40:08.036Z,10.82
2023-03-28T06:42:36.106Z,10.63
2023-03-28T06:45:21.214Z,8.65
2023-03-28T06:47:54.092Z,10.48
2023-03-28T06:50:28.368Z,10.07
2023-03-28T06:53:02.041Z,14.18
2023-03-28T06:55:29.067Z,8.88
2023-03-28T06:57:56.144Z,9.48
2023-03-28T07:00:29.919Z,7.22
2023-03-28T07:03:30.391Z,8.20
2023-03-28T07:08:34.438Z,9.20
2023-03-28T07:11:01.786Z,12.15
2023-03-28T07:13:29.590Z,9.93
2023-03-28T07:16:05.696Z,10.05
2023-03-28T07:18:33.329Z,11.98
2023-03-28T07:21:09.878Z,9.20
2023-03-28T07:23:39.358Z,11.15
2023-03-28T07:26:08.251Z,12.35
2023-03-28T07:28:36.316Z,6.88
2023-03-28T07:31:05.180Z,12.65
2023-03-28T07:33:37.655Z,9.95
2023-03-28T07:36:16.249Z,12.13
2023-03-28T07:38:48.412Z,7.90
2023-03-28T07:41:17.110Z,6.53
2023-03-28T07:43:44.544Z,7.38
2023-03-28T07:46:17.187Z,12.10
2023-03-28T07:48:46.758Z,10.15
2023-03-28T07:51:14.608Z,8.85
2023-03-28T07:53:41.988Z,6.43
2023-03-28T07:56:13.198Z,11.98
2023-03-28T07:58:59.138Z,6.70
2023-03-28T08:01:26.501Z,8.70
2023-03-28T08:04:03.140Z,9.10
2023-03-28T08:07:00.432Z,4.82
2023-03-28T08:09:28.393Z,7.28
2023-03-28T08:12:11.041Z,6.68
2023-03-28T08:14:38.059Z,5.40
2023-03-28T08:17:05.379Z,8.75
2023-03-28T08:19:32.556Z,10.02
2023-03-28T08:22:12.557Z,8.43
2023-03-28T08:25:06.808Z,6.85
2023-03-28T08:27:34.591Z,5.45
2023-03-28T08:30:08.259Z,14.50
2023-03-28T08:32:38.673Z,6.45
2023-03-28T08:35:07.056Z,7.05
2023-03-28T08:37:34.216Z,9.77
2023-03-28T08:40:07.603Z,12.05
2023-03-28T08:42:53.835Z,8.77
2023-03-28T08:45:47.407Z,6.72
2023-03-28T08:48:23.288Z,5.25
2023-03-28T08:50:54.538Z,3.00
2023-03-28T08:53:34.445Z,10.10
2023-03-28T08:56:07.146Z,5.18
2023-03-28T08:59:21.876Z,7.60
2023-03-28T09:01:50.048Z,7.30
2023-03-28T09:04:27.306Z,10.55
2023-03-28T09:07:22.507Z,6.45
2023-03-28T09:10:26.971Z,9.13
2023-03-28T09:13:33.721Z,7.57
2023-03-28T09:16:22.014Z,5.70
2023-03-28T09:19:36.871Z,3.50
2023-03-28T09:23:17.991Z,2.30
2023-03-28T09:26:33.174Z,3.22
2023-03-28T09:29:13.262Z,4.78
2023-03-28T09:31:46.250Z,5.65
2023-03-28T09:34:23.141Z,4.18
2023-03-28T09:36:55.257Z,2.97
2023-03-28T09:39:30.503Z,6.72
2023-03-28T09:42:04.542Z,4.07
2023-03-28T09:45:30.382Z,3.97
2023-03-28T09:48:28.476Z,4.97
2023-03-28T09:51:00.993Z,1.63
2023-03-28T09:53:33.907Z,6.82
2023-03-28T09:56:34.113Z,4.65
2023-03-28T09:59:31.626Z,3.05
2023-03-28T10:02:27.821Z,3.13
2023-03-28T10:04:56.574Z,4.55
2023-03-28T10:07:45.677Z,2.42
2023-03-28T10:10:35.633Z,3.53
2023-03-28T10:13:12.004Z,4.95
2023-03-28T10:15:41.523Z,2.85
2023-03-28T10:21:12.594Z,2.83
2023-03-28T10:23:45.836Z,3.28
2023-03-28T10:26:22.091Z,2.63
2023-03-28T10:28:54.263Z,5.53
2023-03-28T10:31:29.887Z,3.53
2023-03-28T10:34:31.586Z,6.03
2023-03-28T10:37:33.162Z,1.33
2023-03-28T10:40:28.118Z,2.08
2023-03-28T10:43:21.925Z,2.65
2023-03-28T10:46:08.737Z,2.70
2023-03-28T10:49:01.388Z,2.35
2023-03-28T10:51:32.651Z,3.55
2023-03-28T10:54:29.752Z,2.55
2023-03-28T10:57:30.780Z,2.67
2023-03-28T11:00:08.529Z,3.25
2023-03-28T11:03:10.655Z,1.35
2023-03-28T11:05:42.830Z,2.08
2023-03-28T11:08:27.968Z,3.58
2023-03-28T11:11:06.238Z,2.45
2023-03-28T11:13:57.432Z,3.92
2023-03-28T11:17:03.532Z,3.28
2023-03-28T11:20:17.499Z,5.65
2023-03-28T11:26:08.562Z,1.88
2023-03-28T11:29:13.713Z,2.75
2023-03-28T11:32:03.400Z,1.15
2023-03-28T11:34:44.850Z,2.67
2023-03-28T11:37:26.263Z,2.30
2023-03-28T11:39:59.079Z,3.58
2023-03-28T11:42:42.409Z,3.75
2023-03-28T11:46:06.382Z,3.08
2023-03-28T11:48:47.766Z,1.55
2023-03-28T11:51:39.354Z,4.75
2023-03-28T11:54:21.610Z,2.85
2023-03-28T11:57:00.435Z,11.18
2023-03-28T11:59:44.273Z,6.05
2023-03-28T12:02:37.726Z,4.22
2023-03-28T12:05:36.112Z,6.28
2023-03-28T12:08:04.494Z,6.23
2023-03-28T12:10:36.445Z,4.88
2023-03-28T12:14:01.350Z,2.97
2023-03-28T12:16:42.137Z,8.77
2023-03-28T12:19:19.749Z,5.82
2023-03-28T12:21:58.906Z,3.10
2023-03-28T12:24:58.108Z,2.97
2023-03-28T12:28:00.895Z,3.72
2023-03-28T12:30:40.636Z,3.28
2023-03-28T12:33:40.304Z,3.88
2023-03-28T12:36:34.533Z,3.72
2023-03-28T12:39:36.914Z,3.13
2023-03-28T12:42:14.883Z,6.30
2023-03-28T12:44:50.468Z,4.32
2023-03-28T12:47:24.444Z,7.00
2023-03-28T12:49:55.486Z,4.03
2023-03-28T12:52:33.912Z,5.53
2023-03-28T12:55:09.624Z,11.27
2023-03-28T12:57:41.624Z,6.30
2023-03-28T13:01:07.133Z,3.40
2023-03-28T13:04:00.003Z,3.50
2023-03-28T13:07:10.632Z,4.75
2023-03-28T13:09:46.528Z,3.97
2023-03-28T13:12:25.563Z,4.78
2023-03-28T13:15:09.343Z,4.05
2023-03-28T13:17:39.385Z,3.78
2023-03-28T13:20:15.853Z,3.10
2023-03-28T13:22:49.392Z,4.40
2023-03-28T13:25:27.294Z,5.18
2023-03-28T13:28:12.706Z,2.55
2023-03-28T13:30:45.208Z,2.72
2023-03-28T13:33:27.886Z,3.20
2023-03-28T13:36:03.909Z,5.88
2023-03-28T13:38:31.299Z,2.45
2023-03-28T13:41:02.980Z,2.20
2023-03-28T13:43:47.557Z,2.80
2023-03-28T13:46:43.468Z,3.17
2023-03-28T13:49:13.175Z,5.35
2023-03-28T13:51:52.268Z,2.47
2023-03-28T13:54:19.957Z,3.33
2023-03-28T13:56:49.528Z,4.25
2023-03-28T13:59:31.677Z,3.05
2023-03-28T14:02:04.011Z,3.55
2023-03-28T14:04:35.332Z,6.07
2023-03-28T14:07:02.767Z,4.80
2023-03-28T14:09:33.915Z,1.73
2023-03-28T14:12:03.142Z,5.60
2023-03-28T14:14:35.321Z,4.18
2023-03-28T14:17:05.714Z,3.47
2023-03-28T14:19:43.272Z,2.00
2023-03-28T14:22:17.151Z,2.95
2023-03-28T14:24:45.966Z,3.97
2023-03-28T14:27:27.232Z,4.80
2023-03-28T14:29:56.292Z,2.60
2023-03-28T14:32:26.558Z,5.95
2023-03-28T14:34:55.955Z,4.32
2023-03-28T14:37:23.196Z,4.30
2023-03-28T14:39:51.609Z,5.07
2023-03-28T14:42:21.158Z,5.45
2023-03-28T14:44:54.900Z,3.03
2023-03-28T14:47:28.755Z,3.05
2023-03-28T14:49:56.275Z,4.43
2023-03-28T14:52:30.871Z,1.70
2023-03-28T14:55:16.756Z,2.30
2023-03-28T14:57:46.118Z,3.17
2023-03-28T15:00:20.592Z,5.28
2023-03-28T15:02:48.369Z,2.67
2023-03-28T15:05:20.143Z,2.38
2023-03-28T15:07:56.519Z,4.22
2023-03-28T15:10:25.722Z,5.03
2023-03-28T15:13:20.796Z,4.95
2023-03-28T15:15:49.665Z,4.55
2023-03-28T15:18:20.129Z,3.28
2023-03-28T15:21:02.012Z,4.82
2023-03-28T15:23:52.155Z,3.83
2023-03-28T15:26:28.959Z,6.45
2023-03-28T15:28:57.625Z,3.95
2023-03-28T15:31:27.616Z,4.75
2023-03-28T15:33:55.459Z,4.65
2023-03-28T15:36:30.749Z,4.22
2023-03-28T15:39:10.791Z,2.55
2023-03-28T15:41:45.656Z,3.88
2023-03-28T15:44:31.278Z,2.75
2023-03-28T15:47:21.308Z,5.18
2023-03-28T15:49:50.821Z,5.78
2023-03-28T15:52:21.415Z,3.75
2023-03-28T15:54:56.550Z,4.35
2023-03-28T15:57:30.016Z,2.53
2023-03-28T15:59:58.504Z,7.05
2023-03-28T16:02:25.783Z,7.13
2023-03-28T16:05:03.315Z,4.85
2023-03-28T16:07:50.799Z,4.25
2023-03-28T16:10:20.205Z,7.15
2023-03-28T16:13:07.370Z,3.38
2023-03-28T16:15:51.872Z,4.95
2023-03-28T16:18:30.822Z,3.90
2023-03-28T16:21:01.095Z,3.42
2023-03-28T16:23:28.120Z,3.97
2023-03-28T16:25:55.100Z,4.60
2023-03-28T16:28:22.289Z,3.63
2023-03-28T16:30:49.377Z,4.10
2023-03-28T16:33:17.093Z,5.90
2023-03-28T16:35:44.223Z,4.55
2023-03-28T16:38:12.147Z,4.50
2023-03-28T16:40:39.583Z,3.00
2023-03-28T16:43:08.007Z,5.00
2023-03-28T16:45:35.628Z,4.88
2023-03-28T16:48:02.808Z,2.92
2023-03-28T16:50:29.901Z,3.00
2023-03-28T16:52:56.886Z,3.97
2023-03-28T16:55:24.050Z,3.45
2023-03-28T16:57:51.112Z,2.85
2023-03-28T17:00:22.992Z,3.88
2023-03-28T17:02:50.178Z,4.82
2023-03-28T17:05:17.552Z,2.97
2023-03-28T17:07:44.813Z,4.15
2023-03-28T17:10:11.976Z,4.63
2023-03-28T17:12:39.014Z,2.75
2023-03-28T17:15:06.914Z,2.08
2023-03-28T17:17:34.083Z,3.33
2023-03-28T17:20:01.406Z,5.50
2023-03-28T17:22:28.481Z,4.65
2023-03-28T17:24:57.382Z,3.15
2023-03-28T17:27:24.464Z,2.40
2023-03-28T17:29:51.919Z,4.13
2023-03-28T17:32:19.348Z,3.78
2023-03-28T17:34:46.825Z,4.65
2023-03-28T17:37:14.064Z,3.83
2023-03-28T17:39:41.266Z,4.55
2023-03-28T17:42:09.804Z,3.72
2023-03-28T17:44:36.858Z,2.35
2023-03-28T17:47:03.991Z,3.30
2023-03-28T17:49:31.303Z,5.25
2023-03-28T17:51:58.901Z,2.63
2023-03-28T17:54:26.332Z,4.68
2023-03-28T17:56:54.145Z,11.15
2023-03-28T17:59:22.400Z,19.30
2023-03-28T18:01:49.854Z,26.30
2023-03-28T18:04:17.683Z,19.02
2023-03-28T18:07:16.687Z,12.77
2023-03-28T18:09:45.543Z,7.10
2023-03-28T18:12:13.558Z,6.03
2023-03-28T18:14:40.669Z,3.92
2023-03-28T18:17:08.465Z,2.33
2023-03-28T18:19:35.752Z,3.92
2023-03-28T18:22:03.501Z,5.90
2023-03-28T18:24:30.681Z,5.57
2023-03-28T18:26:59.238Z,3.97
2023-03-28T18:29:26.278Z,3.35
2023-03-28T18:31:53.349Z,4.10
2023-03-28T18:34:21.634Z,3.40
2023-03-28T18:36:48.622Z,6.75
2023-03-28T18:39:16.678Z,5.32
2023-03-28T18:41:43.682Z,7.68
2023-03-28T18:44:10.826Z,4.50
2023-03-28T18:46:37.928Z,6.45
2023-03-28T18:49:06.573Z,6.82
2023-03-28T18:51:33.662Z,7.70
2023-03-28T18:54:01.028Z,7.25
2023-03-28T18:56:28.206Z,6.75
2023-03-28T18:58:55.215Z,6.78
2023-03-28T19:01:23.340Z,5.22
2023-03-28T19:03:50.728Z,5.15
2023-03-28T19:06:18.059Z,5.80
2023-03-28T19:08:45.284Z,4.32
2023-03-28T19:11:31.365Z,4.78
2023-03-28T19:13:58.414Z,5.30
2023-03-28T19:16:26.320Z,3.58
2023-03-28T19:18:53.360Z,8.73
2023-03-28T19:21:20.632Z,5.93
2023-03-28T19:23:49.058Z,7.18
2023-03-28T19:26:16.566Z,5.53
2023-03-28T19:28:43.817Z,4.72
2023-03-28T19:31:12.590Z,6.60
2023-03-28T19:33:43.349Z,6.80
2023-03-28T19:36:11.365Z,10.15
2023-03-28T19:38:39.350Z,7.72
2023-03-28T19:41:14.434Z,7.15
2023-03-28T19:43:45.472Z,11.40
2023-03-28T19:46:19.019Z,6.22
2023-03-28T19:48:46.184Z,5.90
2023-03-28T19:51:14.280Z,6.13
2023-03-28T19:53:42.167Z,7.53
2023-03-28T19:56:11.478Z,7.18
2023-03-28T19:58:38.628Z,4.15
2023-03-28T20:01:06.027Z,5.47
2023-03-28T20:03:33.244Z,5.03
2023-03-28T20:06:06.239Z,5.78
2023-03-28T20:08:34.520Z,12.23
2023-03-28T20:11:02.627Z,12.23
2023-03-28T20:13:29.999Z,11.40
2023-03-28T20:15:57.120Z,9.05
2023-03-28T20:18:24.344Z,15.20
2023-03-28T20:20:53.549Z,18.05
2023-03-28T20:27:47.728Z,12.30
2023-03-28T20:30:14.766Z,4.72
2023-03-28T20:32:41.950Z,7.90
2023-03-28T20:35:09.376Z,5.15
2023-03-28T20:37:37.057Z,8.38
2023-03-28T20:40:10.967Z,6.45
2023-03-28T20:42:40.970Z,6.55
2023-03-28T20:45:22.342Z,4.65
2023-03-28T20:47:56.784Z,12.13
2023-03-28T20:50:26.021Z,7.15
2023-03-28T20:52:53.356Z,8.57
2023-03-28T20:55:20.437Z,5.05
2023-03-28T20:57:48.063Z,7.90
2023-03-28T21:00:16.403Z,4.65
2023-03-28T21:07:10.448Z,5.88
2023-03-28T21:09:41.869Z,6.18
2023-03-28T21:12:09.178Z,4.60
2023-03-28T21:14:36.495Z,2.63
2023-03-28T21:17:07.522Z,6.45
2023-03-28T21:19:35.059Z,3.15
2023-03-28T21:22:02.144Z,3.90
2023-03-28T21:24:29.143Z,5.10
2023-03-28T21:31:22.041Z,5.53
2023-03-28T21:33:49.778Z,3.35
2023-03-28T21:36:18.524Z,3.85
2023-03-28T21:38:46.987Z,5.35
2023-03-28T21:41:14.675Z,4.07
2023-03-28T21:43:41.769Z,3.97
2023-03-28T21:47:03.420Z,6.28
2023-03-28T21:49:30.739Z,6.13
2023-03-28T21:51:57.785Z,3.28
2023-03-28T21:54:25.615Z,6.32
2023-03-28T21:56:52.680Z,4.15
2023-03-28T21:59:19.819Z,3.97
2023-03-28T22:01:46.880Z,4.15
2023-03-28T22:04:13.932Z,3.83
2023-03-28T22:06:40.898Z,6.43
2023-03-28T22:09:07.933Z,3.45
2023-03-28T22:11:35.208Z,3.63
2023-03-28T22:14:02.781Z,3.20
2023-03-28T22:16:38.010Z,5.70
2023-03-28T22:19:06.892Z,3.20
2023-03-28T22:21:34.065Z,6.00
2023-03-28T22:24:06.714Z,5.07
2023-03-28T22:26:33.761Z,3.50
2023-03-28T22:29:00.784Z,5.25
2023-03-28T22:31:28.272Z,3.40
2023-03-28T22:33:56.741Z,2.80
2023-03-28T22:36:23.822Z,3.15
2023-03-28T22:38:51.958Z,3.47
2023-03-28T22:41:19.002Z,4.00
2023-03-28T22:43:47.082Z,5.00
2023-03-28T22:46:16.454Z,4.35
2023-03-28T22:48:58.731Z,3.70
2023-03-28T22:51:28.157Z,3.38
2023-03-28T22:54:00.330Z,4.35
2023-03-28T22:56:27.577Z,4.47
2023-03-28T22:58:54.753Z,6.10
2023-03-28T23:01:23.282Z,5.15
2023-03-28T23:03:50.697Z,7.95
2023-03-28T23:06:17.790Z,5.93
2023-03-28T23:08:44.790Z,3.40
2023-03-28T23:11:11.886Z,3.28
2023-03-28T23:13:38.991Z,2.92
2023-03-28T23:16:07.294Z,4.63
2023-03-28T23:18:34.362Z,2.63
2023-03-28T23:21:02.085Z,3.42
2023-03-28T23:23:29.583Z,3.10
2023-03-28T23:25:57.706Z,4.38
2023-03-28T23:28:24.705Z,3.58
2023-03-28T23:30:51.755Z,3.03
2023-03-28T23:33:18.828Z,2.60
2023-03-28T23:35:48.306Z,3.50
2023-03-28T23:38:17.676Z,2.85
2023-03-28T23:40:45.517Z,4.00
2023-03-28T23:43:13.274Z,2.30
2023-03-28T23:45:40.372Z,3.58
2023-03-28T23:48:09.318Z,2.00
2023-03-28T23:50:36.566Z,1.98
2023-03-28T23:53:04.632Z,2.80
2023-03-28T23:55:32.382Z,1.35
2023-03-28T23:58:01.989Z,4.80
